createdAt,value
2018-12-05T00:04:27.527Z,5.90
2018-12-05T00:09:31.605Z,6.00
2018-12-05T00:14:35.539Z,5.80
2018-12-05T00:19:39.673Z,5.20
2018-12-05T00:24:43.738Z,5.60
2018-12-05T00:29:47.666Z,5.80
2018-12-05T00:34:51.859Z,5.80
2018-12-05T00:39:55.762Z,5.80
2018-12-05T00:44:59.932Z,5.90
2018-12-05T00:50:04.843Z,5.70
2018-12-05T00:55:08.828Z,5.80
2018-12-05T01:00:13.147Z,5.60
2018-12-05T01:05:17.296Z,5.70
2018-12-05T01:10:21.344Z,5.50
2018-12-05T01:15:25.317Z,5.40
2018-12-05T01:20:29.333Z,4.60
2018-12-05T01:25:33.385Z,4.40
2018-12-05T01:30:37.356Z,4.70
2018-12-05T01:35:41.405Z,4.70
2018-12-05T01:40:45.447Z,4.00
2018-12-05T01:45:49.585Z,4.00
2018-12-05T01:50:53.632Z,4.20
2018-12-05T01:55:57.648Z,4.80
2018-12-05T02:01:01.574Z,5.10
2018-12-05T02:06:05.581Z,5.30
2018-12-05T02:11:09.526Z,4.80
2018-12-05T02:16:13.673Z,4.80
2018-12-05T02:21:18.621Z,4.60
2018-12-05T02:26:22.572Z,4.20
2018-12-05T02:31:26.566Z,4.10
2018-12-05T02:36:30.584Z,3.40
2018-12-05T02:41:34.608Z,3.20
2018-12-05T02:46:38.675Z,3.20
2018-12-05T02:51:42.613Z,3.10
2018-12-05T02:56:46.669Z,3.00
2018-12-05T03:01:50.746Z,3.00
2018-12-05T03:06:54.741Z,3.40
2018-12-05T03:11:58.677Z,3.30
2018-12-05T03:17:02.756Z,3.70
2018-12-05T03:22:06.661Z,3.70
2018-12-05T03:27:10.572Z,3.50
2018-12-05T03:32:14.583Z,3.90
2018-12-05T03:37:18.514Z,3.60
2018-12-05T03:42:22.509Z,3.90
2018-12-05T03:47:26.430Z,3.80
2018-12-05T03:52:31.167Z,3.60
2018-12-05T03:57:35.113Z,3.90
2018-12-05T04:02:39.164Z,3.30
2018-12-05T04:07:43.210Z,3.10
2018-12-05T04:12:47.222Z,3.30
2018-12-05T04:17:51.280Z,3.60
2018-12-05T04:22:55.164Z,3.20
2018-12-05T04:27:59.107Z,3.30
2018-12-05T04:33:03.046Z,3.30
2018-12-05T04:38:07.035Z,3.10
2018-12-05T04:43:10.924Z,2.90
2018-12-05T04:48:14.925Z,2.90
2018-12-05T04:53:18.860Z,2.70
2018-12-05T04:58:23.710Z,3.10
2018-12-05T05:03:27.868Z,2.80
2018-12-05T05:08:31.916Z,2.80
2018-12-05T05:13:35.840Z,2.80
2018-12-05T05:18:39.822Z,2.70
2018-12-05T05:23:43.865Z,3.00
2018-12-05T05:28:47.995Z,3.20
2018-12-05T05:33:52.133Z,3.40
2018-12-05T05:38:56.203Z,3.60
2018-12-05T05:44:00.145Z,3.30
2018-12-05T05:49:04.067Z,3.30
2018-12-05T05:54:07.956Z,3.00
2018-12-05T05:59:11.859Z,2.90
2018-12-05T06:04:15.841Z,2.90
2018-12-05T06:09:20.026Z,2.90
2018-12-05T06:14:23.925Z,3.10
2018-12-05T06:19:29.581Z,3.00
2018-12-05T06:24:33.529Z,3.00
2018-12-05T06:29:37.437Z,3.00
2018-12-05T06:34:41.481Z,3.00
2018-12-05T06:39:45.473Z,2.90
2018-12-05T06:44:49.694Z,3.00
2018-12-05T06:49:53.897Z,3.00
2018-12-05T06:54:57.829Z,3.10
2018-12-05T07:00:01.731Z,3.10
2018-12-05T07:05:06.288Z,3.10
2018-12-05T07:10:10.200Z,3.50
2018-12-05T07:15:14.109Z,3.40
2018-12-05T07:20:18.324Z,3.40
2018-12-05T07:25:22.414Z,3.30
2018-12-05T07:30:29.405Z,3.20
2018-12-05T07:35:32.310Z,3.10
2018-12-05T07:40:36.364Z,3.10
2018-12-05T07:45:40.322Z,3.20
2018-12-05T07:50:44.302Z,3.20
2018-12-05T07:55:48.245Z,3.20
2018-12-05T08:00:52.715Z,3.20
2018-12-05T08:05:56.929Z,3.30
2018-12-05T08:11:01.163Z,3.40
2018-12-05T08:16:05.234Z,3.50
2018-12-05T08:21:09.189Z,3.60
2018-12-05T08:26:13.131Z,3.50
2018-12-05T08:31:17.129Z,3.50
2018-12-05T08:36:21.121Z,3.80
2018-12-05T08:41:25.046Z,4.00
2018-12-05T08:46:29.050Z,4.10
2018-12-05T08:51:33.482Z,4.40
2018-12-05T08:56:37.589Z,4.30
2018-12-05T09:01:41.551Z,4.40
2018-12-05T09:06:45.615Z,4.30
2018-12-05T09:11:49.571Z,4.40
2018-12-05T09:16:53.542Z,4.50
2018-12-05T09:21:57.667Z,4.30
2018-12-05T09:27:01.708Z,4.40
2018-12-05T09:32:05.735Z,4.60
2018-12-05T09:37:09.649Z,4.70
2018-12-05T09:42:13.637Z,4.80
2018-12-05T09:47:17.694Z,5.00
2018-12-05T09:52:21.835Z,5.10
2018-12-05T09:57:26.008Z,5.20
2018-12-05T10:02:30.201Z,5.40
2018-12-05T10:07:34.152Z,5.40
2018-12-05T10:12:38.222Z,5.50
2018-12-05T10:17:42.890Z,5.60
2018-12-05T10:22:46.962Z,5.60
2018-12-05T10:27:50.974Z,5.70
2018-12-05T10:32:55.105Z,5.70
2018-12-05T10:37:59.049Z,5.70
2018-12-05T10:43:03.152Z,5.90
2018-12-05T10:48:07.082Z,6.10
2018-12-05T10:53:11.144Z,6.20
2018-12-05T10:58:15.090Z,6.20
2018-12-05T11:03:24.575Z,6.40
2018-12-05T11:08:34.254Z,6.50
2018-12-05T11:13:43.681Z,6.50
2018-12-05T11:18:53.166Z,6.70
2018-12-05T11:25:00.534Z,6.80
2018-12-05T11:30:05.460Z,6.80
2018-12-05T11:35:09.452Z,7.10
2018-12-05T11:40:13.597Z,7.40
2018-12-05T11:45:17.620Z,7.50
2018-12-05T11:50:21.725Z,7.70
2018-12-05T11:55:25.946Z,7.70
2018-12-05T12:00:29.952Z,7.70
2018-12-05T12:05:34.035Z,7.70
2018-12-05T12:10:40.574Z,7.80
2018-12-05T12:15:44.538Z,7.90
2018-12-05T12:20:48.498Z,8.00
2018-12-05T12:25:52.489Z,8.10
2018-12-05T12:30:56.459Z,8.10
2018-12-05T12:36:00.489Z,8.10
2018-12-05T12:41:04.760Z,8.20
2018-12-05T12:46:08.649Z,8.20
2018-12-05T12:51:12.813Z,8.20
2018-12-05T12:56:16.767Z,8.10
2018-12-05T13:01:20.689Z,8.10
2018-12-05T13:06:24.760Z,8.10
2018-12-05T13:11:28.725Z,8.10
2018-12-05T13:16:32.740Z,8.10
2018-12-05T13:21:37.253Z,8.10
2018-12-05T13:26:41.257Z,8.10
2018-12-05T13:31:45.302Z,8.10
2018-12-05T13:36:49.240Z,8.10
2018-12-05T13:41:53.161Z,8.00
2018-12-05T13:46:57.152Z,8.00
2018-12-05T13:52:01.296Z,8.10
2018-12-05T13:57:06.026Z,8.10
2018-12-05T14:02:09.913Z,8.10
2018-12-05T14:07:13.942Z,8.10
2018-12-05T14:12:33.483Z,8.20
2018-12-05T14:17:37.811Z,8.20
2018-12-05T14:22:41.734Z,8.20
2018-12-05T14:27:46.030Z,8.20
2018-12-05T14:32:50.180Z,8.20
2018-12-05T14:37:55.220Z,8.20
2018-12-05T14:42:59.171Z,8.20
2018-12-05T14:48:03.206Z,8.10
2018-12-05T14:53:07.112Z,8.20
2018-12-05T14:58:11.021Z,8.30
2018-12-05T15:03:14.955Z,8.20
2018-12-05T15:08:19.243Z,8.10
2018-12-05T15:13:23.449Z,8.10
2018-12-05T15:18:27.430Z,8.00
2018-12-05T15:23:31.430Z,8.00
2018-12-05T15:28:35.506Z,7.80
2018-12-05T15:33:39.637Z,7.90
2018-12-05T15:38:43.669Z,8.10
2018-12-05T15:43:47.642Z,8.10
2018-12-05T15:48:51.667Z,8.20
2018-12-05T15:53:55.620Z,8.00
2018-12-05T15:58:59.581Z,8.00
2018-12-05T16:04:03.499Z,8.00
2018-12-05T16:09:07.764Z,7.90
2018-12-05T16:14:11.737Z,7.90
2018-12-05T16:19:15.671Z,7.90
2018-12-05T16:24:19.666Z,8.00
2018-12-05T16:29:24.358Z,8.00
2018-12-05T16:34:28.442Z,7.90
2018-12-05T16:39:32.439Z,7.90
2018-12-05T16:44:36.472Z,7.90
2018-12-05T16:49:41.374Z,8.00
2018-12-05T16:54:45.798Z,8.00
2018-12-05T16:59:50.030Z,8.00
2018-12-05T17:04:54.001Z,8.00
2018-12-05T17:09:58.021Z,7.90
2018-12-05T17:15:02.093Z,8.00
2018-12-05T17:20:06.483Z,7.90
2018-12-05T17:25:10.697Z,7.90
2018-12-05T17:30:14.759Z,7.90
2018-12-05T17:35:18.821Z,8.00
2018-12-05T17:40:22.899Z,8.00
2018-12-05T17:45:26.995Z,8.00
2018-12-05T17:50:30.915Z,7.90
2018-12-05T17:55:34.817Z,7.90
2018-12-05T18:00:38.931Z,7.80
2018-12-05T18:05:42.865Z,7.80
2018-12-05T18:10:46.893Z,7.80
2018-12-05T18:15:50.970Z,7.70
2018-12-05T18:20:55.661Z,7.80
2018-12-05T18:25:59.678Z,7.90
2018-12-05T18:31:03.715Z,7.90
2018-12-05T18:36:07.726Z,8.00
2018-12-05T18:41:11.686Z,8.00
2018-12-05T18:46:15.701Z,8.00
2018-12-05T18:51:19.835Z,8.00
2018-12-05T18:56:24.280Z,8.00
2018-12-05T19:01:28.295Z,8.00
2018-12-05T19:06:32.233Z,8.10
2018-12-05T19:11:36.356Z,8.00
2018-12-05T19:16:40.507Z,8.10
2018-12-05T19:21:44.728Z,8.20
2018-12-05T19:26:50.114Z,8.10
2018-12-05T19:31:54.113Z,8.00
2018-12-05T19:36:58.214Z,7.90
2018-12-05T19:42:02.451Z,8.10
2018-12-05T19:47:07.843Z,8.20
2018-12-05T19:52:12.783Z,8.20
2018-12-05T19:57:18.084Z,8.50
2018-12-05T20:02:23.465Z,8.30
2018-12-05T20:07:28.086Z,8.30
2018-12-05T20:12:33.544Z,8.70
2018-12-05T20:17:38.781Z,8.80
2018-12-05T20:22:43.527Z,8.60
2018-12-05T20:27:48.270Z,8.40
2018-12-05T20:32:53.738Z,8.40
2018-12-05T20:37:57.847Z,8.30
2018-12-05T20:43:02.028Z,8.00
2018-12-05T20:48:06.588Z,7.90
2018-12-05T20:53:10.708Z,8.30
2018-12-05T20:58:15.446Z,8.50
2018-12-05T21:03:19.435Z,8.10
2018-12-05T21:08:38.333Z,8.60
2018-12-05T21:13:43.872Z,8.60
2018-12-05T21:18:48.044Z,8.60
2018-12-05T21:23:52.603Z,8.30
2018-12-05T21:28:56.626Z,8.20
2018-12-05T21:34:00.559Z,8.10
2018-12-05T21:39:07.918Z,8.10
2018-12-05T21:44:11.942Z,8.10
2018-12-05T21:49:15.908Z,8.50
2018-12-05T21:54:19.825Z,8.30
2018-12-05T21:59:24.371Z,8.20
2018-12-05T22:04:28.596Z,8.30
2018-12-05T22:09:32.519Z,8.30
2018-12-05T22:14:36.435Z,8.60
2018-12-05T22:19:40.718Z,8.70
2018-12-05T22:24:44.725Z,8.90
2018-12-05T22:29:48.602Z,8.90
2018-12-05T22:34:52.568Z,9.00
2018-12-05T22:39:56.540Z,9.00
2018-12-05T22:45:00.470Z,9.10
2018-12-05T22:50:04.684Z,9.10
2018-12-05T22:55:08.605Z,9.10
2018-12-05T23:00:19.527Z,9.10
2018-12-05T23:05:23.538Z,9.20
2018-12-05T23:10:27.476Z,9.20
2018-12-05T23:15:31.398Z,9.30
2018-12-05T23:20:35.442Z,9.30
2018-12-05T23:25:39.367Z,9.30
2018-12-05T23:30:43.373Z,9.30
2018-12-05T23:35:47.400Z,9.30
2018-12-05T23:40:51.332Z,9.40
2018-12-05T23:46:02.039Z,9.40
2018-12-05T23:51:06.254Z,9.40
2018-12-05T23:56:10.222Z,9.50
